Time;durP1;ratioP1;P1;durP2;ratioP2;P2;SDS_P1;SDS_P2;PMS_P1;PMS_P2;Temp;Humidity;BMP_temperature;BMP_pressure;BME280_temperature;BME280_humidity;BME280_pressure;Samples;Min_cycle;Max_cycle;Signal;HPM_P1;HPM_P2
2023/03/08 00:02:05;;;;;;;2.03;1.92;;;3.40;73.80;;;;;;5070828;28;20262;-67
2023/03/08 00:04:33;;;;;;;0.98;0.98;;;3.50;73.60;;;;;;5072010;28;20192;-66
2023/03/08 00:07:00;;;;;;;2.13;1.45;;;3.80;88.60;;;;;;5070108;28;20231;-67
2023/03/08 00:09:27;;;;;;;0.77;0.65;;;3.60;74.20;;;;;;5071726;28;20254;-69
2023/03/08 00:11:53;;;;;;;1.50;0.65;;;4.10;93.20;;;;;;5071423;28;20215;-66
2023/03/08 00:14:21;;;;;;;1.42;0.88;;;3.60;73.60;;;;;;5071519;28;20187;-67
2023/03/08 00:16:48;;;;;;;0.40;0.40;;;3.70;73.90;;;;;;5070881;28;20238;-66
2023/03/08 00:19:15;;;;;;;3.05;1.00;;;3.60;73.80;;;;;;5071501;28;20207;-66
2023/03/08 00:21:43;;;;;;;0.88;0.75;;;3.70;88.70;;;;;;5070557;28;20223;-67
2023/03/08 00:24:11;;;;;;;4.20;1.50;;;3.70;90.20;;;;;;5071056;28;20202;-66
2023/03/08 00:26:37;;;;;;;1.20;1.05;;;3.30;93.50;;;;;;5071067;28;20211;-66
2023/03/08 00:29:04;;;;;;;0.55;0.55;;;3.60;94.40;;;;;;5070717;28;20202;-66
2023/03/08 00:31:32;;;;;;;6.38;1.58;;;3.60;74.50;;;;;;5070899;28;20323;-67
2023/03/08 00:33:58;;;;;;;3.38;2.33;;;3.70;93.50;;;;;;5070787;28;20203;-66
2023/03/08 00:36:25;;;;;;;1.02;0.80;;;3.60;74.30;;;;;;5071023;28;20225;-67
2023/03/08 00:38:53;;;;;;;0.70;0.70;;;3.60;74.20;;;;;;5070754;28;20195;-67
2023/03/08 00:41:20;;;;;;;1.50;1.40;;;3.70;74.50;;;;;;5070560;28;20229;-67
2023/03/08 00:43:47;;;;;;;1.20;0.65;;;3.50;74.40;;;;;;5070598;28;20242;-66
2023/03/08 00:46:14;;;;;;;2.33;1.08;;;3.50;74.70;;;;;;5070130;28;20310;-66
2023/03/08 00:48:43;;;;;;;1.50;1.40;;;3.30;92.90;;;;;;5070107;28;20195;-67
2023/03/08 00:51:13;;;;;;;0.93;0.93;;;3.50;75.10;;;;;;5070097;28;20223;-67
2023/03/08 00:53:40;;;;;;;1.55;1.55;;;3.60;87.50;;;;;;5070808;28;20527;-66
2023/03/08 00:56:08;;;;;;;1.13;0.70;;;3.40;74.90;;;;;;5070488;28;20306;-66
2023/03/08 00:58:38;;;;;;;1.77;1.15;;;3.10;88.50;;;;;;5070359;28;20224;-67
2023/03/08 01:01:06;;;;;;;2.05;1.95;;;3.40;75.40;;;;;;5069531;28;20236;-67
2023/03/08 01:03:33;;;;;;;5.60;1.27;;;3.30;75.70;;;;;;5070758;28;20219;-66
2023/03/08 01:06:06;;;;;;;0.73;0.73;;;3.00;89.90;;;;;;5070383;28;20237;-66
2023/03/08 01:08:33;;;;;;;0.50;0.50;;;3.20;94.50;;;;;;5070452;28;20191;-67
2023/03/08 01:11:01;;;;;;;0.82;0.82;;;3.20;76.10;;;;;;5069854;28;20219;-67
2023/03/08 01:13:31;;;;;;;2.90;1.58;;;3.20;77.80;;;;;;5070170;28;20206;-68
2023/03/08 01:15:58;;;;;;;2.50;1.90;;;3.30;89.90;;;;;;5069270;28;20215;-66
2023/03/08 01:18:25;;;;;;;0.75;0.75;;;3.30;76.40;;;;;;5070263;28;20195;-66
2023/03/08 01:20:56;;;;;;;4.38;0.75;;;3.40;76.10;;;;;;5070569;28;20215;-67
2023/03/08 01:23:23;;;;;;;3.15;1.90;;;3.40;76.00;;;;;;5070357;28;20783;-67
2023/03/08 01:25:57;;;;;;;2.45;0.70;;;3.30;75.80;;;;;;5069978;28;20226;-66
2023/03/08 01:28:24;;;;;;;1.30;1.20;;;3.20;95.20;;;;;;5069721;28;20187;-66
2023/03/08 01:30:52;;;;;;;5.00;1.90;;;3.20;76.60;;;;;;5070128;28;20222;-66
2023/03/08 01:33:19;;;;;;;1.50;1.40;;;3.20;76.50;;;;;;5069860;28;20204;-67
2023/03/08 01:35:46;;;;;;;2.03;1.92;;;3.20;76.30;;;;;;5069882;28;20708;-67
2023/03/08 01:38:13;;;;;;;0.30;0.20;;;3.20;76.50;;;;;;5070252;28;20210;-67
2023/03/08 01:40:40;;;;;;;1.38;1.38;;;3.00;93.50;;;;;;5069154;28;20718;-67
2023/03/08 01:43:21;;;;;;;2.25;2.15;;;3.10;77.10;;;;;;5070355;28;20553;-67
2023/03/08 01:46:17;;;;;;;3.22;1.10;;;3.10;90.50;;;;;;5069695;28;20219;-66
2023/03/08 01:48:48;;;;;;;0.93;0.93;;;3.10;77.00;;;;;;5069872;28;20196;-66
2023/03/08 01:51:20;;;;;;;7.47;1.65;;;3.00;77.00;;;;;;5068921;28;20211;-67
2023/03/08 01:53:47;;;;;;;1.13;0.93;;;3.20;95.50;;;;;;5068849;28;20198;-66
2023/03/08 01:56:17;;;;;;;1.40;1.30;;;3.00;77.30;;;;;;5069591;28;20219;-67
2023/03/08 01:58:47;;;;;;;9.35;1.60;;;2.70;95.40;;;;;;5060312;28;20190;-67
2023/03/08 02:01:15;;;;;;;2.30;2.10;;;2.80;77.40;;;;;;5069064;28;20211;-67
2023/03/08 02:03:42;;;;;;;2.72;0.75;;;2.60;95.20;;;;;;5072856;28;20214;-67
2023/03/08 02:06:09;;;;;;;3.50;1.23;;;2.40;96.50;;;;;;5073923;28;20218;-66
2023/03/08 02:08:36;;;;;;;1.20;1.20;;;2.50;78.40;;;;;;5073719;28;20198;-67
2023/03/08 02:11:03;;;;;;;0.32;0.32;;;2.50;78.80;;;;;;5073914;28;20682;-67
2023/03/08 02:13:30;;;;;;;1.10;1.10;;;2.40;92.10;;;;;;5073692;28;20278;-67
2023/03/08 02:16:00;;;;;;;0.60;0.60;;;2.70;93.40;;;;;;5073316;28;20250;-66
2023/03/08 02:18:29;;;;;;;1.02;1.00;;;2.30;94.70;;;;;;5073014;28;20188;-67
2023/03/08 02:20:56;;;;;;;2.38;0.75;;;2.50;91.30;;;;;;5073620;28;20890;-66
2023/03/08 02:23:26;;;;;;;1.42;1.33;;;2.60;96.00;;;;;;5073690;28;20215;-66
2023/03/08 02:25:55;;;;;;;3.42;1.38;;;2.60;78.90;;;;;;5073372;28;20328;-67
2023/03/08 02:28:25;;;;;;;2.05;1.20;;;2.70;96.20;;;;;;5073046;28;20199;-67
2023/03/08 02:30:53;;;;;;;4.72;0.85;;;2.50;94.80;;;;;;5073057;28;20285;-67
2023/03/08 02:33:20;;;;;;;1.95;1.85;;;2.60;92.00;;;;;;5073591;28;20278;-66
2023/03/08 02:35:47;;;;;;;1.33;1.23;;;2.60;91.50;;;;;;5073055;28;20211;-66
2023/03/08 02:38:18;;;;;;;0.70;0.70;;;2.50;77.90;;;;;;5073230;28;20269;-67
2023/03/08 02:40:47;;;;;;;0.82;0.73;;;2.90;97.20;;;;;;5072812;28;20272;-66
2023/03/08 02:43:15;;;;;;;2.50;1.30;;;2.10;91.70;;;;;;5072538;28;20227;-67
2023/03/08 02:45:43;;;;;;;0.77;0.77;;;2.70;95.70;;;;;;5072798;28;20215;-67
2023/03/08 02:48:11;;;;;;;1.60;1.50;;;2.80;92.00;;;;;;5072839;28;20628;-66
2023/03/08 02:50:38;;;;;;;1.00;1.00;;;2.80;95.80;;;;;;5072634;28;20826;-66
2023/03/08 02:53:06;;;;;;;1.38;1.33;;;2.70;91.80;;;;;;5073128;28;20191;-67
2023/03/08 02:55:35;;;;;;;9.93;2.28;;;2.80;96.10;;;;;;5072425;28;20215;-67
2023/03/08 02:58:05;;;;;;;0.55;0.55;;;2.70;79.20;;;;;;5072708;28;20221;-67
2023/03/08 03:00:33;;;;;;;3.00;1.15;;;2.80;91.50;;;;;;5072495;28;20215;-66
2023/03/08 03:03:01;;;;;;;0.65;0.65;;;2.70;78.30;;;;;;5071961;28;20215;-66
2023/03/08 03:05:28;;;;;;;0.65;0.65;;;2.80;79.00;;;;;;5072134;28;20214;-68
2023/03/08 03:07:57;;;;;;;2.08;1.92;;;2.70;78.40;;;;;;5073217;28;20192;-66
2023/03/08 03:10:24;;;;;;;0.75;0.75;;;2.80;78.60;;;;;;5071717;28;20223;-66
2023/03/08 03:12:51;;;;;;;0.40;0.40;;;2.80;78.50;;;;;;5071665;28;20199;-67
2023/03/08 03:15:20;;;;;;;0.95;0.90;;;2.70;78.40;;;;;;5072510;28;20191;-66
2023/03/08 03:17:46;;;;;;;1.77;1.67;;;2.50;90.60;;;;;;5072531;28;20223;-66
2023/03/08 03:20:15;;;;;;;8.35;1.10;;;2.80;78.80;;;;;;5072446;28;20266;-67
2023/03/08 03:22:43;;;;;;;1.88;1.75;;;2.90;95.00;;;;;;5071617;28;20283;-67
2023/03/08 03:25:10;;;;;;;2.20;1.77;;;2.80;95.40;;;;;;5072767;28;20192;-67
2023/03/08 03:27:38;;;;;;;0.98;0.85;;;2.90;96.10;;;;;;5071992;28;20286;-67
2023/03/08 03:30:08;;;;;;;1.13;0.80;;;2.90;78.00;;;;;;5072331;28;20249;-67
2023/03/08 03:32:38;;;;;;;1.63;1.52;;;2.50;90.50;;;;;;5072087;28;20187;-67
2023/03/08 03:35:06;;;;;;;1.38;1.38;;;3.00;93.90;;;;;;5072399;28;20225;-67
2023/03/08 03:37:35;;;;;;;1.60;1.50;;;2.90;93.60;;;;;;5071615;28;20307;-67
2023/03/08 03:40:02;;;;;;;0.93;0.60;;;3.00;78.60;;;;;;5071489;28;20204;-67
2023/03/08 03:42:29;;;;;;;0.80;0.73;;;3.00;78.50;;;;;;5072024;28;20593;-66
2023/03/08 03:44:57;;;;;;;0.68;0.65;;;3.00;78.60;;;;;;5071396;28;20649;-66
2023/03/08 03:47:25;;;;;;;2.88;1.20;;;2.90;78.60;;;;;;5071967;28;20692;-67
2023/03/08 03:49:53;;;;;;;1.40;0.82;;;3.00;93.70;;;;;;5071137;28;20270;-67
2023/03/08 03:52:21;;;;;;;14.80;1.25;;;2.90;78.20;;;;;;5072144;28;20245;-67
2023/03/08 03:54:48;;;;;;;2.90;1.38;;;2.80;78.00;;;;;;5072103;28;20304;-66
2023/03/08 03:57:15;;;;;;;0.73;0.73;;;2.90;78.80;;;;;;5071767;28;20215;-67
2023/03/08 03:59:44;;;;;;;0.82;0.82;;;2.90;78.30;;;;;;5071729;28;20199;-67
2023/03/08 04:02:12;;;;;;;1.55;1.55;;;2.80;78.40;;;;;;5071224;28;20633;-67
2023/03/08 04:04:39;;;;;;;4.72;3.10;;;2.80;78.10;;;;;;5071487;28;20223;-66
2023/03/08 04:07:10;;;;;;;1.60;0.80;;;2.80;79.30;;;;;;5071395;28;20227;-67
2023/03/08 04:09:37;;;;;;;1.13;1.05;;;2.90;93.50;;;;;;5070892;28;20573;-67
2023/03/08 04:12:04;;;;;;;1.15;1.05;;;2.80;78.80;;;;;;5071356;28;20223;-66
2023/03/08 04:14:31;;;;;;;2.58;1.17;;;2.90;78.80;;;;;;5071655;28;20201;-67
2023/03/08 04:16:58;;;;;;;6.03;1.27;;;2.80;78.80;;;;;;5070769;28;20242;-66
2023/03/08 04:19:25;;;;;;;2.63;2.42;;;2.80;79.00;;;;;;5071591;28;20839;-67
2023/03/08 04:21:51;;;;;;;0.93;0.80;;;2.80;79.00;;;;;;5071157;28;20264;-66
2023/03/08 04:24:19;;;;;;;2.67;1.42;;;2.90;79.00;;;;;;5071249;28;20322;-67
2023/03/08 04:26:46;;;;;;;8.73;2.38;;;2.90;78.90;;;;;;5070786;28;20211;-67
2023/03/08 04:29:13;;;;;;;1.85;1.75;;;3.00;87.30;;;;;;5070434;28;20187;-67
2023/03/08 04:31:40;;;;;;;1.05;1.05;;;2.90;79.00;;;;;;5070471;28;20215;-67
2023/03/08 04:34:07;;;;;;;1.15;1.02;;;2.90;78.50;;;;;;5071623;28;20203;-67
2023/03/08 04:36:34;;;;;;;8.02;1.30;;;2.80;78.80;;;;;;5070707;28;20273;-67
2023/03/08 04:39:00;;;;;;;2.58;0.80;;;2.80;79.00;;;;;;5070528;28;20198;-67
2023/03/08 04:41:28;;;;;;;3.33;2.40;;;2.80;79.20;;;;;;5070059;28;20222;-67
2023/03/08 04:43:56;;;;;;;1.13;0.77;;;3.30;90.60;;;;;;5070562;28;20234;-67
2023/03/08 04:46:25;;;;;;;1.40;0.90;;;2.90;79.10;;;;;;5070163;28;20227;-67
2023/03/08 04:48:52;;;;;;;2.97;2.78;;;3.00;78.90;;;;;;5070908;28;20206;-67
2023/03/08 04:51:20;;;;;;;2.10;1.95;;;2.90;78.60;;;;;;5070406;28;20219;-67
2023/03/08 04:53:47;;;;;;;2.60;2.50;;;3.00;92.70;;;;;;5062195;28;20195;-67
2023/03/08 04:56:16;;;;;;;1.80;1.05;;;3.00;79.00;;;;;;5070134;28;20215;-67
2023/03/08 04:58:44;;;;;;;2.35;0.90;;;3.00;87.70;;;;;;5069938;28;20549;-66
2023/03/08 05:01:12;;;;;;;2.08;1.42;;;3.00;78.80;;;;;;5070160;28;20222;-67
2023/03/08 05:03:40;;;;;;;0.93;0.93;;;3.10;93.40;;;;;;5070786;28;20223;-67
2023/03/08 05:06:07;;;;;;;1.60;1.50;;;3.10;78.90;;;;;;5070056;28;20219;-66
2023/03/08 05:08:35;;;;;;;1.33;1.23;;;3.10;78.90;;;;;;5070459;28;20209;-66
2023/03/08 05:11:03;;;;;;;2.05;0.55;;;3.10;79.20;;;;;;5069576;28;20268;-67
2023/03/08 05:13:32;;;;;;;2.10;0.88;;;3.10;79.00;;;;;;5070600;28;20195;-66
2023/03/08 05:16:00;;;;;;;1.40;0.90;;;3.10;79.10;;;;;;5070396;28;20211;-66
2023/03/08 05:18:27;;;;;;;1.05;0.68;;;3.20;93.40;;;;;;5070121;28;20282;-67
2023/03/08 05:20:55;;;;;;;0.73;0.60;;;3.20;79.00;;;;;;5070201;28;20302;-66
2023/03/08 05:23:22;;;;;;;1.95;0.70;;;3.20;79.10;;;;;;5070504;28;20587;-67
2023/03/08 05:25:52;;;;;;;0.80;0.70;;;3.10;92.60;;;;;;5069720;28;20306;-66
2023/03/08 05:28:19;;;;;;;2.42;0.95;;;3.20;79.20;;;;;;5070303;28;20199;-66
2023/03/08 05:30:45;;;;;;;2.80;0.68;;;3.30;79.10;;;;;;5069942;28;20215;-66
2023/03/08 05:33:14;;;;;;;3.42;1.42;;;3.30;78.80;;;;;;5070009;28;20201;-67
2023/03/08 05:35:41;;;;;;;2.33;0.68;;;3.30;79.10;;;;;;5069742;28;20226;-66
2023/03/08 05:38:07;;;;;;;1.52;1.38;;;3.30;92.20;;;;;;5069508;28;20221;-67
2023/03/08 05:40:37;;;;;;;3.33;3.03;;;3.20;78.90;;;;;;5069499;28;20245;-67
2023/03/08 05:43:03;;;;;;;3.03;2.70;;;3.30;79.10;;;;;;5070489;28;20217;-67
2023/03/08 05:45:30;;;;;;;0.63;0.57;;;3.40;79.80;;;;;;5069745;28;20245;-67
2023/03/08 05:47:57;;;;;;;1.70;1.60;;;3.40;78.80;;;;;;5070122;28;20203;-67
2023/03/08 05:50:25;;;;;;;1.65;0.60;;;3.40;78.80;;;;;;5069341;28;20246;-67
2023/03/08 05:52:52;;;;;;;1.13;1.05;;;2.90;93.00;;;;;;5069490;28;20195;-67
2023/03/08 05:55:18;;;;;;;1.67;0.90;;;3.40;79.60;;;;;;5069778;28;20203;-67
2023/03/08 05:57:45;;;;;;;1.02;1.02;;;3.40;78.90;;;;;;5069958;28;20191;-66
2023/03/08 06:00:13;;;;;;;4.50;2.17;;;3.40;79.10;;;;;;5069199;28;20198;-67
2023/03/08 06:02:40;;;;;;;4.05;1.75;;;3.40;79.20;;;;;;5070025;28;20214;-67
2023/03/08 06:05:08;;;;;;;3.22;1.63;;;3.40;79.20;;;;;;5069857;28;20298;-67
2023/03/08 06:07:36;;;;;;;2.17;1.60;;;3.50;92.60;;;;;;5068836;28;20265;-67
2023/03/08 06:10:03;;;;;;;1.83;0.70;;;3.40;79.30;;;;;;5069779;28;20195;-66
2023/03/08 06:12:30;;;;;;;0.68;0.65;;;3.40;79.50;;;;;;5069447;28;20199;-66
2023/03/08 06:14:56;;;;;;;0.65;0.60;;;3.40;80.10;;;;;;5069918;28;20202;-67
2023/03/08 06:17:23;;;;;;;0.70;0.70;;;3.60;80.10;;;;;;5069549;28;20219;-67
2023/03/08 06:19:50;;;;;;;2.80;2.60;;;3.70;93.20;;;;;;5069571;28;20199;-66
2023/03/08 06:22:17;;;;;;;2.67;1.90;;;3.60;80.20;;;;;;5069357;28;20231;-66
2023/03/08 06:24:48;;;;;;;2.67;2.40;;;3.80;88.80;;;;;;5068471;28;20256;-66
2023/03/08 06:27:15;;;;;;;6.20;4.82;;;;;;;;;;5067194;28;20747;-67
2023/03/08 06:29:44;;;;;;;2.65;2.30;;;3.70;80.00;;;;;;5068454;28;20202;-67
2023/03/08 06:32:11;;;;;;;1.50;1.40;;;3.70;80.70;;;;;;5069147;28;20230;-66
2023/03/08 06:34:38;;;;;;;3.78;1.70;;;3.80;80.70;;;;;;5068826;28;20195;-66
2023/03/08 06:37:04;;;;;;;2.78;2.22;;;3.80;80.70;;;;;;5069492;28;20219;-66
2023/03/08 06:39:33;;;;;;;1.35;1.25;;;3.70;92.40;;;;;;5068853;28;20192;-67
2023/03/08 06:42:01;;;;;;;2.70;1.15;;;3.80;81.20;;;;;;5068882;28;20276;-66
2023/03/08 06:44:28;;;;;;;1.05;0.95;;;3.80;81.30;;;;;;5069039;28;20207;-68
2023/03/08 06:46:55;;;;;;;4.60;2.13;;;3.90;81.50;;;;;;5068386;28;20608;-66
2023/03/08 06:49:22;;;;;;;4.70;1.35;;;3.80;81.20;;;;;;5072370;28;20194;-66
2023/03/08 06:51:49;;;;;;;2.95;1.23;;;3.90;81.40;;;;;;5072689;28;20223;-67
2023/03/08 06:54:17;;;;;;;2.35;1.70;;;3.80;88.90;;;;;;5072322;28;20286;-66
2023/03/08 06:56:44;;;;;;;15.75;1.63;;;3.90;81.30;;;;;;5072717;28;20767;-67
2023/03/08 06:59:12;;;;;;;1.10;0.85;;;3.90;81.70;;;;;;5072153;28;20187;-67
2023/03/08 07:01:39;;;;;;;1.85;1.75;;;3.90;94.30;;;;;;5071205;28;20568;-67
2023/03/08 07:04:06;;;;;;;3.35;2.83;;;3.90;93.30;;;;;;5072235;28;20754;-67
2023/03/08 07:06:33;;;;;;;2.05;1.95;;;4.00;89.80;;;;;;5072561;28;20215;-66
2023/03/08 07:09:00;;;;;;;5.18;2.35;;;4.00;81.90;;;;;;5071244;28;20207;-67
2023/03/08 07:11:28;;;;;;;2.85;1.95;;;4.00;82.00;;;;;;5071149;28;20219;-66
2023/03/08 07:13:55;;;;;;;3.00;2.50;;;4.10;82.00;;;;;;5072195;28;20192;-66
2023/03/08 07:16:23;;;;;;;3.00;2.65;;;4.10;82.10;;;;;;5058008;28;20223;-67
2023/03/08 07:18:50;;;;;;;2.08;1.88;;;4.20;81.90;;;;;;5071943;28;20217;-66
2023/03/08 07:21:16;;;;;;;5.65;2.05;;;4.20;82.00;;;;;;5072068;28;20211;-66
2023/03/08 07:23:43;;;;;;;2.00;1.60;;;4.20;81.80;;;;;;5071850;28;20202;-66
2023/03/08 07:26:10;;;;;;;3.92;1.77;;;4.80;82.50;;;;;;5072251;28;20235;-67
2023/03/08 07:28:37;;;;;;;3.15;1.92;;;4.30;81.90;;;;;;5071005;28;20200;-67
2023/03/08 07:31:04;;;;;;;2.63;2.38;;;4.30;82.20;;;;;;5071912;28;20215;-67
2023/03/08 07:33:32;;;;;;;8.27;3.42;;;4.20;82.40;;;;;;5072313;28;20198;-66
2023/03/08 07:36:01;;;;;;;4.40;3.03;;;4.30;82.50;;;;;;5071831;28;20223;-66
2023/03/08 07:38:28;;;;;;;2.63;2.38;;;4.40;82.50;;;;;;5071804;28;20195;-67
2023/03/08 07:40:55;;;;;;;5.28;1.30;;;4.40;82.70;;;;;;5071228;28;20223;-66
2023/03/08 07:43:22;;;;;;;0.95;0.95;;;4.60;93.70;;;;;;5071415;28;20731;-67
2023/03/08 07:45:49;;;;;;;1.70;1.60;;;4.50;82.40;;;;;;5071258;28;20271;-66
2023/03/08 07:48:16;;;;;;;5.38;2.13;;;4.50;90.30;;;;;;5071409;28;20203;-67
2023/03/08 07:50:44;;;;;;;2.25;1.02;;;4.40;82.80;;;;;;5071317;28;20212;-66
2023/03/08 07:53:11;;;;;;;2.63;1.35;;;4.40;83.10;;;;;;5071793;28;20188;-66
2023/03/08 07:55:38;;;;;;;2.10;1.98;;;4.40;83.30;;;;;;5070283;28;20207;-67
2023/03/08 07:58:04;;;;;;;1.75;1.45;;;4.50;84.00;;;;;;5068613;28;20200;-67
2023/03/08 08:00:31;;;;;;;1.25;1.25;;;4.50;84.90;;;;;;5070299;28;20297;-66
2023/03/08 08:02:58;;;;;;;3.75;2.58;;;4.50;85.60;;;;;;5070811;28;20203;-67
2023/03/08 08:05:25;;;;;;;2.35;1.77;;;4.60;86.10;;;;;;5071084;28;20231;-67
2023/03/08 08:07:54;;;;;;;4.63;2.03;;;4.60;86.70;;;;;;5071132;28;20198;-67
2023/03/08 08:10:21;;;;;;;1.15;1.05;;;4.60;87.50;;;;;;5053658;28;20192;-67
2023/03/08 08:12:48;;;;;;;3.67;1.40;;;4.70;87.60;;;;;;5071289;28;20191;-67
2023/03/08 08:15:15;;;;;;;2.28;2.05;;;4.70;87.40;;;;;;5071361;28;20320;-66
2023/03/08 08:17:42;;;;;;;10.90;2.88;;;4.70;87.80;;;;;;5062210;28;20269;-68
2023/03/08 08:20:10;;;;;;;3.60;2.45;;;4.60;88.40;;;;;;5070521;28;20294;-68
2023/03/08 08:22:37;;;;;;;2.55;2.35;;;4.60;88.40;;;;;;5070786;28;20551;-68
2023/03/08 08:25:07;;;;;;;2.88;1.20;;;4.70;89.10;;;;;;5069709;28;20537;-69
2023/03/08 08:27:34;;;;;;;2.33;0.98;;;4.70;88.90;;;;;;5068706;28;20645;-69
2023/03/08 08:30:03;;;;;;;2.38;1.95;;;4.70;89.10;;;;;;5069233;28;20199;-69
2023/03/08 08:32:30;;;;;;;6.10;2.40;;;4.70;89.10;;;;;;5067127;28;20253;-69
2023/03/08 08:34:56;;;;;;;3.88;1.30;;;4.80;89.10;;;;;;5070574;28;20346;-68
2023/03/08 08:37:23;;;;;;;1.15;0.93;;;4.70;89.40;;;;;;5068704;28;20220;-69
2023/03/08 08:39:51;;;;;;;4.10;3.78;;;4.80;90.00;;;;;;5066515;28;20196;-70
2023/03/08 08:42:19;;;;;;;2.00;1.13;;;5.10;97.50;;;;;;5068028;28;20233;-69
2023/03/08 08:44:45;;;;;;;1.50;1.30;;;5.00;98.60;;;;;;5068863;28;20208;-68
2023/03/08 08:47:12;;;;;;;1.75;1.65;;;4.90;90.40;;;;;;5068724;28;20219;-69
2023/03/08 08:49:40;;;;;;;5.88;2.80;;;4.90;91.30;;;;;;5069160;28;20194;-69
2023/03/08 08:52:07;;;;;;;2.65;1.85;;;4.80;99.10;;;;;;5068686;28;20223;-70
2023/03/08 08:54:34;;;;;;;2.97;2.35;;;5.00;97.70;;;;;;5069126;28;20274;-69
2023/03/08 08:57:00;;;;;;;0.95;0.95;;;5.10;91.40;;;;;;5069417;28;20215;-68
2023/03/08 08:59:28;;;;;;;1.42;1.33;;;5.20;91.30;;;;;;5068703;28;20199;-69
2023/03/08 09:01:55;;;;;;;3.20;2.67;;;5.20;91.40;;;;;;5068820;28;20306;-68
2023/03/08 09:04:22;;;;;;;7.57;2.47;;;5.10;98.60;;;;;;5068903;28;20201;-69
2023/03/08 09:06:49;;;;;;;2.90;2.65;;;5.20;90.90;;;;;;5069113;28;20238;-69
2023/03/08 09:09:17;;;;;;;3.05;2.50;;;5.30;98.40;;;;;;5068480;28;20234;-69
2023/03/08 09:11:46;;;;;;;3.83;2.38;;;5.30;90.20;;;;;;5068111;28;20297;-68
2023/03/08 09:14:13;;;;;;;5.25;2.78;;;5.30;94.10;;;;;;5067030;28;20560;-68
2023/03/08 09:16:42;;;;;;;2.80;2.40;;;5.30;90.50;;;;;;5068791;28;20256;-69
2023/03/08 09:19:09;;;;;;;6.10;3.88;;;5.30;90.40;;;;;;5068307;28;20192;-69
2023/03/08 09:21:36;;;;;;;3.50;3.30;;;5.30;90.30;;;;;;5068658;28;20282;-69
2023/03/08 09:24:05;;;;;;;4.97;3.45;;;5.30;90.20;;;;;;5068892;28;20285;-69
2023/03/08 09:26:33;;;;;;;3.05;2.85;;;5.30;90.30;;;;;;5066243;28;20834;-68
2023/03/08 09:29:03;;;;;;;2.67;1.98;;;5.40;90.30;;;;;;5068821;28;20562;-69
2023/03/08 09:31:30;;;;;;;2.65;2.45;;;5.40;90.40;;;;;;5065521;28;20215;-69
2023/03/08 09:33:59;;;;;;;3.22;1.45;;;5.50;90.70;;;;;;5067980;28;20214;-68
2023/03/08 09:36:28;;;;;;;1.50;1.40;;;5.40;90.20;;;;;;5068233;28;20241;-69
2023/03/08 09:38:56;;;;;;;2.03;1.30;;;5.40;90.40;;;;;;5067918;28;20183;-70
2023/03/08 09:41:41;;;;;;;2.10;1.90;;;5.50;90.40;;;;;;5067963;28;20269;-70
2023/03/08 09:44:42;;;;;;;2.88;2.55;;;5.60;90.30;;;;;;5067713;28;20291;-70
2023/03/08 09:47:16;;;;;;;4.95;2.25;;;5.60;90.30;;;;;;5068639;28;20227;-68
2023/03/08 09:49:48;;;;;;;12.10;3.58;;;6.40;99.20;;;;;;5067657;28;20197;-70
2023/03/08 09:52:29;;;;;;;2.13;2.03;;;5.70;90.50;;;;;;5067706;28;20215;-69
2023/03/08 09:54:58;;;;;;;2.90;2.67;;;5.80;90.40;;;;;;5066429;28;20203;-70
2023/03/08 09:57:29;;;;;;;6.18;3.50;;;5.90;90.50;;;;;;5068445;28;20219;-69
2023/03/08 09:59:57;;;;;;;2.63;1.38;;;5.90;90.40;;;;;;5068079;28;20695;-70
2023/03/08 10:02:33;;;;;;;4.10;2.40;;;6.10;90.30;;;;;;5068725;28;20234;-69
2023/03/08 10:05:07;;;;;;;3.80;2.45;;;6.30;90.50;;;;;;5051827;28;20191;-70
2023/03/08 10:07:48;;;;;;;4.68;2.55;;;6.40;90.40;;;;;;5066082;28;20209;-69
2023/03/08 10:10:27;;;;;;;5.18;2.85;;;6.50;90.50;;;;;;5069142;28;20649;-69
2023/03/08 10:13:10;;;;;;;2.20;2.10;;;6.60;90.60;;;;;;5066053;28;20197;-69
2023/03/08 10:15:41;;;;;;;3.22;2.53;;;6.80;91.00;;;;;;5069732;28;20275;-69
2023/03/08 10:18:15;;;;;;;2.47;1.25;;;6.90;91.00;;;;;;5068976;28;20196;-69
2023/03/08 10:20:44;;;;;;;4.85;2.97;;;6.90;91.40;;;;;;5069099;28;20211;-68
2023/03/08 10:23:15;;;;;;;2.58;1.75;;;7.00;91.80;;;;;;5070148;28;20278;-68
2023/03/08 10:25:42;;;;;;;1.67;1.00;;;7.00;92.20;;;;;;5072448;28;20227;-69
2023/03/08 10:28:13;;;;;;;0.82;0.82;;;7.10;92.40;;;;;;5073054;28;20272;-69
2023/03/08 10:30:44;;;;;;;1.65;1.58;;;7.20;92.70;;;;;;5073248;28;20712;-69
2023/03/08 10:33:14;;;;;;;1.67;1.58;;;7.30;92.90;;;;;;5073448;28;20786;-69
2023/03/08 10:35:56;;;;;;;1.25;1.05;;;7.40;93.00;;;;;;5073166;28;20227;-69
2023/03/08 10:38:25;;;;;;;4.03;1.38;;;7.40;99.90;;;;;;5072318;28;20640;-71
2023/03/08 10:41:00;;;;;;;2.10;1.08;;;7.50;93.40;;;;;;5072675;28;20222;-71
2023/03/08 10:43:30;;;;;;;4.47;1.42;;;7.60;93.50;;;;;;5073124;28;20664;-71
2023/03/08 10:46:03;;;;;;;2.00;1.90;;;7.70;93.80;;;;;;5072384;28;20234;-71
2023/03/08 10:48:38;;;;;;;1.37;0.93;;;8.10;94.00;;;;;;5071940;28;20669;-72
2023/03/08 10:51:16;;;;;;;1.00;0.80;;;8.20;94.10;;;;;;5072736;28;21020;-69
2023/03/08 10:53:53;;;;;;;1.10;0.83;;;8.60;94.00;;;;;;5072655;28;20617;-69
2023/03/08 10:56:24;;;;;;;2.10;1.50;;;8.70;93.60;;;;;;5072508;28;20755;-69
2023/03/08 10:58:55;;;;;;;1.63;1.30;;;8.90;93.80;;;;;;5072259;28;20621;-69
2023/03/08 11:01:27;;;;;;;1.37;0.40;;;9.10;93.40;;;;;;5069581;28;20654;-68
2023/03/08 11:04:02;;;;;;;1.77;0.80;;;9.10;93.60;;;;;;5066039;28;20882;-69
2023/03/08 11:06:31;;;;;;;1.87;1.10;;;9.30;93.40;;;;;;5071401;28;20242;-67
2023/03/08 11:09:00;;;;;;;4.20;0.73;;;9.90;97.50;;;;;;5070572;28;20629;-68
2023/03/08 11:11:27;;;;;;;2.57;1.43;;;9.40;94.90;;;;;;5070821;28;20997;-68
2023/03/08 11:13:55;;;;;;;4.23;3.03;;;9.20;93.70;;;;;;5070608;28;20622;-67
2023/03/08 11:16:31;;;;;;;1.13;0.60;;;9.30;94.00;;;;;;5071469;28;20637;-67
2023/03/08 11:19:05;;;;;;;2.60;1.90;;;9.50;94.00;;;;;;5070309;28;20637;-67
2023/03/08 11:21:42;;;;;;;1.33;0.70;;;9.60;93.90;;;;;;5071368;28;20773;-67
2023/03/08 11:24:17;;;;;;;0.40;0.30;;;9.60;93.90;;;;;;5069387;28;20621;-68
2023/03/08 11:26:52;;;;;;;6.57;1.33;;;9.60;93.90;;;;;;5071422;28;20694;-67
2023/03/08 11:29:32;;;;;;;0.60;0.50;;;9.50;94.00;;;;;;5068899;28;20623;-69
2023/03/08 11:32:08;;;;;;;0.40;0.30;;;10.50;94.20;;;;;;5070490;28;21112;-67
2023/03/08 11:35:09;;;;;;;0.40;0.30;;;9.60;98.20;;;;;;5068132;28;20629;-68
2023/03/08 11:37:44;;;;;;;0.30;0.20;;;9.60;94.20;;;;;;5069737;28;21177;-66
2023/03/08 11:40:23;;;;;;;0.60;0.43;;;9.70;94.20;;;;;;5068996;28;20636;-67
2023/03/08 11:43:01;;;;;;;0.50;0.30;;;9.70;94.30;;;;;;5060262;28;20621;-67
2023/03/08 11:45:35;;;;;;;0.40;0.30;;;9.80;94.40;;;;;;5050937;28;20707;-67
2023/03/08 11:48:20;;;;;;;0.93;0.40;;;9.90;94.20;;;;;;5056898;28;20848;-66
2023/03/08 11:50:52;;;;;;;0.50;0.50;;;10.00;93.60;;;;;;5069840;28;20652;-66
2023/03/08 11:53:29;;;;;;;0.80;0.53;;;10.00;98.80;;;;;;5065828;28;20626;-66
2023/03/08 11:56:17;;;;;;;0.30;0.20;;;10.10;93.40;;;;;;5071285;28;20648;-66
2023/03/08 11:58:49;;;;;;;0.53;0.53;;;10.10;93.30;;;;;;5059839;28;20989;-66
2023/03/08 12:01:19;;;;;;;0.30;0.20;;;10.20;93.50;;;;;;5070474;28;20641;-66
2023/03/08 12:03:51;;;;;;;0.40;0.20;;;10.10;93.50;;;;;;5069364;28;20628;-67
2023/03/08 12:06:22;;;;;;;0.63;0.63;;;10.10;93.60;;;;;;5050351;28;21067;-67
2023/03/08 12:08:56;;;;;;;0.47;0.30;;;10.10;93.50;;;;;;5057620;28;20986;-69
2023/03/08 12:11:26;;;;;;;0.40;0.40;;;10.20;93.70;;;;;;5070359;28;20659;-68
2023/03/08 12:13:57;;;;;;;0.30;0.20;;;10.20;93.60;;;;;;5068150;28;20622;-68
2023/03/08 12:16:28;;;;;;;0.57;0.40;;;10.20;93.70;;;;;;5067869;28;20645;-68
2023/03/08 12:19:01;;;;;;;1.00;0.40;;;10.20;93.80;;;;;;5067144;28;20626;-68
2023/03/08 12:21:37;;;;;;;0.40;0.40;;;10.30;93.80;;;;;;5069221;28;20652;-68
2023/03/08 12:24:24;;;;;;;0.33;0.33;;;10.40;93.90;;;;;;5067410;28;20629;-69
2023/03/08 12:26:57;;;;;;;0.63;0.63;;;10.60;93.80;;;;;;5070243;28;20669;-69
2023/03/08 12:29:29;;;;;;;0.30;0.20;;;10.60;93.70;;;;;;5068786;28;20626;-68
2023/03/08 12:31:56;;;;;;;0.40;0.30;;;10.60;93.60;;;;;;5070674;28;20665;-68
2023/03/08 12:34:29;;;;;;;3.00;1.07;;;10.60;93.60;;;;;;5069020;28;21220;-68
2023/03/08 12:36:56;;;;;;;0.90;0.90;;;10.70;96.00;;;;;;5049071;28;20729;-67
2023/03/08 12:39:28;;;;;;;0.30;0.20;;;10.60;93.50;;;;;;5060556;28;20625;-67
2023/03/08 12:42:15;;;;;;;0.50;0.50;;;10.60;93.80;;;;;;5056483;28;20677;-66
2023/03/08 12:44:43;;;;;;;1.23;0.77;;;10.70;93.80;;;;;;5069905;28;20666;-67
2023/03/08 12:47:27;;;;;;;0.40;0.30;;;11.00;93.90;;;;;;5069261;28;20756;-69
2023/03/08 12:49:56;;;;;;;0.63;0.40;;;11.20;93.60;;;;;;5068377;28;20653;-69
2023/03/08 12:52:27;;;;;;;2.07;0.43;;;11.30;93.60;;;;;;5070236;28;20649;-69
2023/03/08 12:55:01;;;;;;;0.50;0.40;;;11.40;93.50;;;;;;5070107;28;20622;-68
2023/03/08 12:57:31;;;;;;;0.83;0.40;;;11.50;93.50;;;;;;5070271;28;20648;-68
2023/03/08 13:00:00;;;;;;;0.93;0.50;;;11.50;93.30;;;;;;5068158;28;20616;-68
2023/03/08 13:02:30;;;;;;;0.30;0.20;;;11.50;93.20;;;;;;5069729;28;20645;-68
2023/03/08 13:05:16;;;;;;;0.60;0.60;;;11.40;93.20;;;;;;5069940;28;20609;-69
2023/03/08 13:07:55;;;;;;;0.30;0.20;;;11.30;99.90;;;;;;5070039;28;20657;-68